DW9819 Weather Reports


Display with metric or nautical units.
time (UTC)temp
F
wind
direction
speed
MPH
gust
MPH
rain 1hr
in
rain 24hr
in
rain mn
in
humidity
%
barometer
mb
20180923123831 29 234 0.0 1.0 0.00 0.00 0.00 91 1019.5
20180923122326 30 234 0.0 0.0 0.00 0.00 0.00 91 1019.5
20180923120824 30 234 0.0 1.0 0.00 0.00 0.00 91 1019.6
20180923115333 30 234 0.0 1.0 0.00 0.00 0.00 90 1019.6
20180923113812 31 234 0.0 1.0 0.00 0.00 0.00 90 1019.4
20180923112321 31 234 0.0 0.0 0.00 0.00 0.00 90 1019.3
20180923110817 32 234 0.0 1.0 0.00 0.00 0.00 89 1019.3
20180923105320 33 234 0.0 1.0 0.00 0.00 0.00 89 1019.1
20180923103814 33 234 0.0 0.0 0.00 0.00 0.00 89 1018.9
20180923102325 34 234 0.0 0.0 0.00 0.00 0.00 89 1019.0
20180923100833 34 234 0.0 0.0 0.00 0.00 0.00 89 1018.9
20180923095315 35 234 0.0 0.0 0.00 0.00 0.00 88 1018.8
20180923093835 35 234 327.0 327.0 0.00 0.00 0.00 88 1019.2
20180923092320 36 234 0.0 2.0 0.00 0.00 0.00 88 1018.7
20180923090816 37 234 0.0 1.0 0.00 0.00 0.00 89 1018.5
20180923085317 37 234 0.0 0.0 0.00 0.00 0.00 90 1018.5
20180923083835 37 234 0.0 0.0 0.00 0.00 0.00 89 1018.5
20180923082341 38 234 0.0 1.0 0.00 0.00 0.00 88 1018.6
20180923080825 38 234 0.0 1.0 0.00 0.00 0.00 87 1018.6
20180923075325 39 234 1.0 2.0 0.00 0.00 0.00 86 1018.6
20180923073837 40 234 0.0 1.0 0.00 0.00 0.00 85 1018.6
20180923072328 40 234 0.0 1.0 0.00 0.00 0.00 84 1018.6
20180923070850 41 234 0.0 0.0 0.00 0.00 0.00 84 1018.6
20180923065327 41 234 0.0 0.0 0.00 0.00 0.00 84 1018.6
20180923063826 42 234 0.0 1.0 0.00 0.00 0.00 83 1018.5
20180923062325 43 234 0.0 1.0 0.00 0.00 0.00 81 1018.4
20180923060839 44 234 0.0 1.0 0.00 0.00 0.00 80 1018.3
20180923055338 45 234 0.0 2.0 0.00 0.00 0.00 78 1018.4
20180923053835 45 234 0.0 2.0 0.00 0.00 0.00 77 1018.4
20180923052329 46 234 0.0 4.0 0.00 0.00 0.00 77 1018.3
20180923050830 46 242 2.0 4.0 0.00 0.00 0.00 73 1018.4
20180923045332 47 242 0.0 3.0 0.00 0.00 0.00 72 1018.4
20180923043816 47 242 1.0 4.0 0.00 0.00 0.00 73 1018.6
20180923042318 47 242 0.0 3.0 0.00 0.00 0.00 73 1018.4
20180923040815 48 242 0.0 1.0 0.00 0.00 0.00 71 1018.3
20180923035319 49 242 0.0 0.0 0.00 0.00 0.00 70 1018.2
20180923033817 50 242 0.0 1.0 0.00 0.00 0.00 69 1018.1
20180923032343 51 242 0.0 1.0 0.00 0.00 0.00 69 1018.0
20180923030825 51 242 0.0 5.0 0.00 0.00 0.00 68 1017.9
20180923025329 52 243 0.0 1.0 0.00 0.00 0.00 66 1017.9
20180923023839 52 243 0.0 1.0 0.00 0.00 0.00 64 1018.0
20180923022317 53 243 0.0 5.0 0.00 0.00 0.00 63 1018.0
20180923020827 54 248 1.0 3.0 0.00 0.00 0.00 62 1018.0
20180923015324 54 221 1.0 4.0 0.00 0.00 0.00 61 1017.8
20180923013819 55 216 2.0 6.0 0.00 0.00 0.00 60 1018.0
20180923012324 56 273 2.0 10.0 0.00 0.00 0.00 59 1018.1
20180923010813 57 242 2.0 11.0 0.00 0.00 0.00 58 1018.0
20180923005321 58 201 3.0 12.0 0.00 0.00 0.00 55 1018.0
20180923003824 59 209 4.0 10.0 0.00 0.00 0.00 52 1017.9
20180923002341 59 320 0.0 9.0 0.00 0.00 0.00 53 1017.6
20180923000812 59 213 3.0 9.0 0.00 0.00 0.00 53 1017.8
20180922235341 59 229 4.0 11.0 0.00 0.00 0.00 52 1017.6
20180922233834 59 277 2.0 10.0 0.00 0.00 0.00 51 1017.5
20180922232332 60 233 4.0 9.0 0.00 0.00 0.00 50 1017.6
20180922230828 60 215 327.0 327.0 0.00 0.00 0.00 52 1017.9
20180922225312 60 202 6.0 16.0 0.00 0.00 0.00 50 1017.7
20180922223824 59 247 7.0 14.0 0.00 0.00 0.00 50 1017.4
20180922222320 59 38 2.0 14.0 0.00 0.00 0.00 49 1017.5
20180922220836 60 197 5.0 13.0 0.00 0.00 0.00 48 1017.3
20180922215318 60 207 4.0 10.0 0.00 0.00 0.00 47 1017.4
20180922213832 61 250 1.0 14.0 0.00 0.00 0.00 46 1017.5
20180922212336 61 14 5.0 11.0 0.00 0.00 0.00 46 1017.4
20180922210839 62 251 2.0 10.0 0.00 0.00 0.00 46 1017.4
20180922205319 62 167 1.0 7.0 0.00 0.00 0.00 52 1017.3
20180922203814 62 141 1.0 9.0 0.00 0.00 0.00 54 1017.3
20180922202322 61 209 1.0 6.0 0.00 0.00 0.00 56 1017.4
20180922200818 60 218 2.0 11.0 0.00 0.00 0.00 56 1017.7
20180922195332 60 217 2.0 8.0 0.00 0.00 0.00 56 1017.7
20180922193815 59 233 0.0 14.0 0.00 0.00 0.00 58 1017.7
20180922192324 59 232 5.0 14.0 0.00 0.00 0.00 57 1018.0
20180922190836 59 193 4.0 11.0 0.00 0.00 0.00 59 1018.0
20180922185320 59 247 1.0 8.0 0.00 0.00 0.00 63 1017.9
20180922183836 58 164 2.0 6.0 0.00 0.00 0.00 64 1018.0
20180922182312 58 238 2.0 7.0 0.00 0.00 0.00 64 1018.0
20180922180816 57 184 4.0 9.0 0.00 0.00 0.00 65 1018.1
20180922175322 56 180 1.0 8.0 0.00 0.00 0.00 64 1018.3
20180922172336 55 177 1.0 6.0 0.00 0.00 0.00 65 1018.2
20180922170837 55 155 1.0 7.0 0.00 0.00 0.00 64 1018.1
20180922165316 54 233 2.0 10.0 0.00 0.00 0.00 64 1018.0
20180922163812 54 214 2.0 5.0 0.00 0.00 0.00 65 1018.0
20180922162322 53 185 0.0 7.0 0.00 0.00 0.00 66 1017.9
20180922160822 53 167 4.0 8.0 0.00 0.00 0.00 67 1017.7
20180922155314 53 171 2.0 11.0 0.00 0.00 0.00 67 1017.7
20180922153819 53 148 5.0 13.0 0.00 0.00 0.00 67 1017.5
20180922152322 52 218 2.0 6.0 0.00 0.00 0.00 70 1017.4
20180922150831 52 164 3.0 8.0 0.00 0.00 0.00 71 1017.2
20180922145315 51 157 2.0 7.0 0.00 0.00 0.00 72 1017.2
20180922143828 50 151 2.0 8.0 0.00 0.00 0.00 72 1017.3
20180922142328 50 166 3.0 8.0 0.00 0.00 0.00 70 1017.3
20180922135316 50 167 3.0 8.0 0.00 0.00 0.00 70 1017.1
20180922133816 51 148 2.0 10.0 0.00 0.00 0.00 70 1017.1
20180922132338 51 174 3.0 9.0 0.00 0.00 0.00 70 1017.1
20180922130816 51 142 3.0 9.0 0.00 0.00 0.00 69 1017.1
20180922125319 51 163 3.0 8.0 0.00 0.00 0.00 69 1016.9